createdAt,value
2018-09-09T00:00:34.387Z,0.00
2018-09-09T00:01:34.480Z,0.00
2018-09-09T00:02:34.569Z,0.00
2018-09-09T00:03:34.660Z,0.00
2018-09-09T00:04:34.755Z,0.00
2018-09-09T00:05:34.849Z,0.00
2018-09-09T00:06:34.940Z,0.00
2018-09-09T00:07:35.037Z,0.00
2018-09-09T00:08:35.132Z,0.00
2018-09-09T00:09:35.222Z,0.00
2018-09-09T00:10:35.316Z,0.00
2018-09-09T00:11:35.413Z,0.00
2018-09-09T00:12:35.504Z,0.00
2018-09-09T00:13:35.603Z,0.00
2018-09-09T00:14:35.691Z,0.00
2018-09-09T00:15:35.782Z,0.00
2018-09-09T00:16:35.875Z,0.00
2018-09-09T00:17:35.965Z,0.00
2018-09-09T00:18:36.061Z,4.00
2018-09-09T00:19:36.158Z,0.00
2018-09-09T00:20:36.246Z,0.00
2018-09-09T00:21:36.334Z,0.00
2018-09-09T00:22:36.443Z,0.00
2018-09-09T00:23:36.539Z,0.00
2018-09-09T00:24:36.633Z,0.00
2018-09-09T00:25:36.727Z,0.00
2018-09-09T00:26:36.821Z,0.00
2018-09-09T00:27:36.916Z,0.00
2018-09-09T00:28:37.006Z,0.00
2018-09-09T00:29:37.088Z,0.00
2018-09-09T00:30:37.214Z,0.00
2018-09-09T00:31:37.307Z,0.00
2018-09-09T00:32:37.403Z,0.00
2018-09-09T00:33:37.500Z,0.00
2018-09-09T00:34:37.595Z,0.00
2018-09-09T00:35:37.692Z,0.00
2018-09-09T00:36:37.784Z,0.00
2018-09-09T00:37:37.880Z,0.00
2018-09-09T00:38:37.962Z,0.00
2018-09-09T00:39:38.052Z,0.00
2018-09-09T00:40:38.160Z,0.00
2018-09-09T00:41:38.267Z,0.00
2018-09-09T00:42:38.372Z,0.00
2018-09-09T00:43:38.469Z,0.00
2018-09-09T00:44:38.558Z,0.00
2018-09-09T00:45:38.654Z,0.00
2018-09-09T00:46:38.746Z,0.00
2018-09-09T00:47:38.840Z,0.00
2018-09-09T00:48:38.945Z,0.00
2018-09-09T00:49:39.036Z,0.00
2018-09-09T00:50:39.130Z,0.00
2018-09-09T00:51:39.230Z,0.00
2018-09-09T00:52:39.339Z,0.00
2018-09-09T00:53:39.405Z,0.00
2018-09-09T00:54:39.492Z,0.00
2018-09-09T00:55:39.588Z,0.00
2018-09-09T00:56:39.683Z,0.00
2018-09-09T00:57:39.786Z,0.00
2018-09-09T00:58:39.888Z,0.00
2018-09-09T00:59:39.978Z,0.00
2018-09-09T01:00:40.075Z,0.00
2018-09-09T01:01:40.176Z,0.00
2018-09-09T01:02:40.239Z,0.00
2018-09-09T01:03:40.333Z,0.00
2018-09-09T01:04:40.423Z,0.00
2018-09-09T01:05:40.530Z,0.00
2018-09-09T01:06:40.613Z,0.00
2018-09-09T01:07:40.709Z,0.00
2018-09-09T01:08:40.800Z,0.00
2018-09-09T01:09:40.893Z,0.00
2018-09-09T01:10:40.986Z,0.00
2018-09-09T01:11:41.082Z,0.00
2018-09-09T01:12:41.174Z,0.00
2018-09-09T01:13:41.275Z,0.00
2018-09-09T01:14:41.368Z,0.00
2018-09-09T01:15:41.458Z,0.00
2018-09-09T01:16:41.551Z,0.00
2018-09-09T01:17:41.645Z,0.00
2018-09-09T01:18:41.735Z,0.00
2018-09-09T01:19:41.831Z,0.00
2018-09-09T01:20:41.925Z,0.00
2018-09-09T01:21:42.016Z,0.00
2018-09-09T01:22:42.109Z,0.00
2018-09-09T01:23:42.202Z,0.00
2018-09-09T01:24:42.323Z,0.00
2018-09-09T01:25:42.391Z,0.00
2018-09-09T01:26:42.487Z,0.00
2018-09-09T01:27:42.578Z,0.00
2018-09-09T01:28:42.673Z,0.00
2018-09-09T01:29:42.765Z,0.00
2018-09-09T01:30:42.858Z,0.00
2018-09-09T01:31:42.955Z,0.00
2018-09-09T01:32:43.050Z,0.00
2018-09-09T01:33:43.140Z,0.00
2018-09-09T01:34:43.233Z,0.00
2018-09-09T01:35:43.327Z,0.00
2018-09-09T01:36:43.423Z,0.00
2018-09-09T01:37:43.516Z,0.00
2018-09-09T01:38:43.606Z,0.00
2018-09-09T01:39:43.709Z,0.00
2018-09-09T01:40:43.797Z,0.00
2018-09-09T01:41:43.894Z,0.00
2018-09-09T01:42:43.987Z,0.00
2018-09-09T01:43:44.085Z,0.00
2018-09-09T01:44:44.175Z,0.00
2018-09-09T01:45:44.272Z,0.00
2018-09-09T01:46:44.371Z,0.00
2018-09-09T01:47:44.462Z,0.00
2018-09-09T01:48:44.555Z,0.00
2018-09-09T01:49:44.650Z,0.00
2018-09-09T01:50:44.743Z,0.00
2018-09-09T01:51:44.836Z,0.00
2018-09-09T01:52:44.930Z,0.00
2018-09-09T01:53:45.024Z,0.00
2018-09-09T01:54:45.118Z,0.00
2018-09-09T01:55:45.211Z,0.00
2018-09-09T01:56:45.308Z,0.00
2018-09-09T01:57:45.402Z,0.00
2018-09-09T01:58:45.492Z,0.00
2018-09-09T01:59:45.576Z,0.00
2018-09-09T02:00:45.670Z,0.00
2018-09-09T02:01:45.762Z,0.00
2018-09-09T02:02:45.855Z,0.00
2018-09-09T02:03:45.951Z,0.00
2018-09-09T02:04:46.046Z,0.00
2018-09-09T02:05:46.155Z,0.00
2018-09-09T02:06:46.254Z,0.00
2018-09-09T02:07:46.348Z,0.00
2018-09-09T02:08:46.439Z,0.00
2018-09-09T02:09:46.533Z,0.00
2018-09-09T02:10:46.628Z,0.00
2018-09-09T02:11:46.719Z,0.00
2018-09-09T02:12:46.817Z,0.00
2018-09-09T02:13:46.907Z,0.00
2018-09-09T02:14:46.999Z,0.00
2018-09-09T02:15:47.091Z,0.00
2018-09-09T02:16:47.187Z,0.00
2018-09-09T02:17:47.282Z,0.00
2018-09-09T02:18:47.375Z,0.00
2018-09-09T02:19:47.468Z,0.00
2018-09-09T02:20:47.563Z,0.00
2018-09-09T02:21:47.653Z,0.00
2018-09-09T02:22:47.745Z,0.00
2018-09-09T02:23:47.839Z,0.00
2018-09-09T02:24:47.934Z,0.00
2018-09-09T02:25:48.045Z,0.00
2018-09-09T02:26:48.117Z,0.00
2018-09-09T02:27:48.211Z,0.00
2018-09-09T02:28:48.307Z,0.00
2018-09-09T02:29:48.402Z,0.00
2018-09-09T02:30:48.495Z,0.00
2018-09-09T02:31:48.597Z,0.00
2018-09-09T02:32:48.693Z,0.00
2018-09-09T02:33:48.785Z,0.00
2018-09-09T02:34:48.881Z,0.00
2018-09-09T02:35:48.971Z,0.00
2018-09-09T02:36:49.070Z,0.00
2018-09-09T02:37:49.161Z,0.00
2018-09-09T02:38:49.257Z,0.00
2018-09-09T02:39:49.355Z,0.00
2018-09-09T02:40:49.447Z,0.00
2018-09-09T02:41:49.534Z,0.00
2018-09-09T02:42:49.633Z,0.00
2018-09-09T02:43:49.734Z,0.00
2018-09-09T02:44:49.819Z,0.00
2018-09-09T02:45:49.921Z,0.00
2018-09-09T02:46:50.017Z,0.00
2018-09-09T02:47:50.111Z,0.00
2018-09-09T02:48:50.216Z,0.00
2018-09-09T02:49:50.305Z,0.00
2018-09-09T02:50:50.398Z,0.00
2018-09-09T02:51:50.491Z,0.00
2018-09-09T02:52:50.591Z,0.00
2018-09-09T02:53:50.680Z,0.00
2018-09-09T02:54:50.777Z,0.00
2018-09-09T02:55:50.865Z,0.00
2018-09-09T02:56:50.959Z,0.00
2018-09-09T02:57:51.054Z,0.00
2018-09-09T02:58:51.149Z,0.00
2018-09-09T02:59:51.240Z,0.00
2018-09-09T03:00:51.331Z,0.00
2018-09-09T03:01:51.424Z,0.00
2018-09-09T03:02:51.517Z,0.00
2018-09-09T03:03:51.618Z,0.00
2018-09-09T03:04:51.703Z,0.00
2018-09-09T03:05:51.794Z,0.00
2018-09-09T03:06:51.891Z,0.00
2018-09-09T03:07:51.984Z,0.00
2018-09-09T03:08:52.076Z,0.00
2018-09-09T03:09:52.169Z,0.00
2018-09-09T03:10:52.261Z,0.00
2018-09-09T03:11:52.352Z,0.00
2018-09-09T03:12:52.448Z,0.00
2018-09-09T03:13:52.540Z,0.00
2018-09-09T03:14:52.635Z,0.00
2018-09-09T03:15:52.729Z,0.00
2018-09-09T03:16:52.819Z,0.00
2018-09-09T03:17:52.908Z,0.00
2018-09-09T03:18:53.002Z,0.00
2018-09-09T03:19:53.105Z,0.00
2018-09-09T03:20:53.199Z,0.00
2018-09-09T03:21:53.293Z,0.00
2018-09-09T03:22:53.385Z,0.00
2018-09-09T03:23:53.479Z,0.00
2018-09-09T03:24:53.569Z,0.00
2018-09-09T03:25:53.662Z,0.00
2018-09-09T03:26:53.757Z,0.00
2018-09-09T03:27:53.848Z,0.00
2018-09-09T03:28:53.950Z,0.00
2018-09-09T03:29:54.040Z,0.00
2018-09-09T03:30:54.123Z,0.00
2018-09-09T03:31:54.223Z,0.00
2018-09-09T03:32:54.304Z,0.00
2018-09-09T03:33:54.394Z,0.00
2018-09-09T03:34:54.489Z,0.00
2018-09-09T03:35:54.579Z,0.00
2018-09-09T03:36:54.675Z,0.00
2018-09-09T03:37:54.772Z,0.00
2018-09-09T03:38:54.867Z,0.00
2018-09-09T03:39:54.957Z,0.00
2018-09-09T03:40:55.053Z,0.00
2018-09-09T03:41:55.140Z,0.00
2018-09-09T03:42:55.232Z,0.00
2018-09-09T03:43:55.327Z,0.00
2018-09-09T03:44:55.420Z,0.00
2018-09-09T03:45:55.521Z,0.00
2018-09-09T03:46:55.615Z,0.00
2018-09-09T03:47:55.710Z,0.00
2018-09-09T03:48:55.800Z,0.00
2018-09-09T03:49:55.891Z,0.00
2018-09-09T03:50:55.988Z,0.00
2018-09-09T03:51:56.076Z,0.00
2018-09-09T03:52:56.175Z,0.00
2018-09-09T03:53:56.259Z,0.00
2018-09-09T03:54:56.352Z,0.00
2018-09-09T03:55:56.448Z,0.00
2018-09-09T03:56:56.539Z,0.00
2018-09-09T03:57:56.631Z,0.00
2018-09-09T03:58:56.730Z,0.00
2018-09-09T03:59:56.818Z,0.00
2018-09-09T04:00:56.911Z,0.00
2018-09-09T04:01:57.005Z,0.00
2018-09-09T04:02:57.097Z,0.00
2018-09-09T04:03:57.191Z,0.00
2018-09-09T04:04:57.283Z,0.00
2018-09-09T04:05:57.380Z,0.00
2018-09-09T04:06:57.471Z,0.00
2018-09-09T04:07:57.568Z,0.00
2018-09-09T04:08:57.663Z,0.00
2018-09-09T04:09:57.795Z,0.00
2018-09-09T04:10:57.851Z,0.00
2018-09-09T04:11:57.945Z,0.00
2018-09-09T04:12:58.039Z,0.00
2018-09-09T04:13:58.136Z,0.00
2018-09-09T04:14:58.225Z,0.00
2018-09-09T04:15:58.316Z,4.00
2018-09-09T04:16:58.400Z,4.00
2018-09-09T04:17:58.495Z,4.00
2018-09-09T04:18:58.589Z,4.00
2018-09-09T04:19:58.681Z,0.00
2018-09-09T04:20:58.768Z,4.00
2018-09-09T04:21:58.886Z,4.00
2018-09-09T04:22:58.976Z,8.00
2018-09-09T04:23:59.078Z,4.00
2018-09-09T04:24:59.171Z,4.00
2018-09-09T04:25:59.262Z,8.00
2018-09-09T04:26:59.363Z,8.00
2018-09-09T04:27:59.449Z,8.00
2018-09-09T04:28:59.537Z,8.00
2018-09-09T04:29:59.622Z,12.00
2018-09-09T04:30:59.829Z,12.00
2018-09-09T04:31:59.809Z,16.00
2018-09-09T04:32:59.906Z,20.00
2018-09-09T04:34:00.001Z,20.00
2018-09-09T04:35:00.108Z,20.00
2018-09-09T04:36:00.199Z,24.00
2018-09-09T04:37:00.290Z,28.00
2018-09-09T04:38:00.386Z,28.00
2018-09-09T04:39:00.483Z,32.00
2018-09-09T04:40:00.575Z,32.00
2018-09-09T04:41:00.667Z,32.00
2018-09-09T04:42:00.764Z,36.00
2018-09-09T04:43:00.854Z,40.00
2018-09-09T04:44:00.947Z,44.00
2018-09-09T04:45:01.037Z,48.00
2018-09-09T04:46:01.131Z,48.00
2018-09-09T04:47:01.230Z,52.00
2018-09-09T04:48:01.332Z,56.00
2018-09-09T04:49:01.426Z,60.00
2018-09-09T04:50:01.520Z,72.00
2018-09-09T04:51:01.618Z,80.00
2018-09-09T04:52:01.710Z,88.00
2018-09-09T04:53:01.793Z,96.00
2018-09-09T04:54:01.887Z,108.00
2018-09-09T04:55:01.972Z,116.00
2018-09-09T04:56:02.088Z,124.00
2018-09-09T04:57:02.165Z,136.00
2018-09-09T04:58:02.255Z,144.00
2018-09-09T04:59:02.347Z,156.00
2018-09-09T05:00:02.438Z,168.00
2018-09-09T05:01:02.550Z,184.00
2018-09-09T05:02:02.641Z,196.00
2018-09-09T05:03:02.731Z,208.00
2018-09-09T05:04:02.826Z,224.00
2018-09-09T05:05:02.919Z,240.00
2018-09-09T05:06:03.006Z,260.00
2018-09-09T05:07:03.101Z,276.00
2018-09-09T05:08:03.230Z,288.00
2018-09-09T05:09:03.335Z,296.00
2018-09-09T05:10:03.413Z,296.00
2018-09-09T05:11:03.504Z,292.00
2018-09-09T05:12:03.595Z,292.00
2018-09-09T05:13:03.688Z,288.00
2018-09-09T05:14:03.777Z,292.00
2018-09-09T05:15:03.871Z,300.00
2018-09-09T05:16:03.965Z,304.00
2018-09-09T05:17:04.058Z,316.00
2018-09-09T05:18:04.150Z,316.00
2018-09-09T05:19:04.243Z,324.00
2018-09-09T05:20:04.336Z,340.00
2018-09-09T05:21:04.430Z,356.00
2018-09-09T05:22:04.525Z,384.00
2018-09-09T05:23:04.642Z,412.00
2018-09-09T05:24:04.704Z,448.00
2018-09-09T05:25:04.796Z,496.00
2018-09-09T05:26:04.892Z,552.00
2018-09-09T05:27:06.036Z,616.00
2018-09-09T05:28:05.093Z,684.00
2018-09-09T05:29:05.185Z,756.00
2018-09-09T05:30:05.268Z,824.00
2018-09-09T05:31:05.360Z,884.00
2018-09-09T05:32:05.449Z,940.00
2018-09-09T05:33:05.544Z,992.00
2018-09-09T05:34:05.638Z,1068.00
2018-09-09T05:35:05.730Z,1180.00
2018-09-09T05:36:05.820Z,1304.00
2018-09-09T05:37:05.917Z,1432.00
2018-09-09T05:38:06.006Z,1548.00
2018-09-09T05:39:06.099Z,1628.00
2018-09-09T05:40:06.193Z,1676.00
2018-09-09T05:41:06.287Z,1708.00
2018-09-09T05:42:06.389Z,1780.00
2018-09-09T05:43:06.482Z,1872.00
2018-09-09T05:44:06.575Z,1964.00
2018-09-09T05:45:06.673Z,2048.00
2018-09-09T05:46:06.781Z,2124.00
2018-09-09T05:47:06.872Z,2152.00
2018-09-09T05:48:06.970Z,2144.00
2018-09-09T05:49:07.058Z,2124.00
2018-09-09T05:50:07.159Z,2080.00
2018-09-09T05:51:07.258Z,2040.00
2018-09-09T05:52:07.357Z,2032.00
2018-09-09T05:53:07.452Z,2004.00
2018-09-09T05:54:07.549Z,1992.00
2018-09-09T05:55:07.637Z,1992.00
2018-09-09T05:56:07.736Z,1992.00
2018-09-09T05:57:07.827Z,1996.00
2018-09-09T05:58:07.919Z,2000.00
2018-09-09T05:59:08.014Z,1984.00
2018-09-09T06:00:08.108Z,1952.00
2018-09-09T06:01:08.197Z,1932.00
2018-09-09T06:02:08.313Z,1944.00
2018-09-09T06:03:08.381Z,1968.00
2018-09-09T06:04:08.474Z,2012.00
2018-09-09T06:05:08.566Z,2088.00
2018-09-09T06:06:08.662Z,2180.00
2018-09-09T06:07:08.757Z,2264.00
2018-09-09T06:08:08.850Z,2344.00
2018-09-09T06:09:08.946Z,2404.00
2018-09-09T06:10:09.035Z,2464.00
2018-09-09T06:11:09.128Z,2528.00
2018-09-09T06:12:09.221Z,2560.00
2018-09-09T06:13:09.308Z,2584.00
2018-09-09T06:14:09.399Z,2612.00
2018-09-09T06:15:09.501Z,2672.00
2018-09-09T06:16:09.594Z,2752.00
2018-09-09T06:17:09.686Z,2728.00
2018-09-09T06:18:09.783Z,2796.00
2018-09-09T06:19:09.879Z,2920.00
2018-09-09T06:20:09.973Z,3096.00
2018-09-09T06:21:10.070Z,3296.00
2018-09-09T06:22:10.162Z,3504.00
2018-09-09T06:23:10.263Z,3772.00
2018-09-09T06:24:10.349Z,6660.00
2018-09-09T06:25:10.448Z,3940.00
2018-09-09T06:26:10.519Z,3968.00
2018-09-09T06:27:10.607Z,4124.00
2018-09-09T06:28:10.732Z,4272.00
2018-09-09T06:29:10.799Z,4284.00
2018-09-09T06:30:10.894Z,4304.00
2018-09-09T06:31:10.993Z,4452.00
2018-09-09T06:32:11.087Z,4536.00
2018-09-09T06:33:11.174Z,4632.00
2018-09-09T06:34:11.266Z,4768.00
2018-09-09T06:35:11.364Z,4996.00
2018-09-09T06:36:11.453Z,5860.00
2018-09-09T06:37:11.547Z,5104.00
2018-09-09T06:38:11.639Z,5228.00
2018-09-09T06:39:11.736Z,5412.00
2018-09-09T06:40:11.831Z,6588.00
2018-09-09T06:41:11.919Z,7680.00
2018-09-09T06:42:12.015Z,8896.00
2018-09-09T06:43:12.108Z,6572.00
2018-09-09T06:44:12.202Z,7736.00
2018-09-09T06:45:12.296Z,6288.00
2018-09-09T06:46:12.388Z,6048.00
2018-09-09T06:47:12.488Z,9632.00
2018-09-09T06:48:12.579Z,9300.00
2018-09-09T06:49:12.675Z,10972.00
2018-09-09T06:50:12.768Z,9096.00
2018-09-09T06:51:12.931Z,7548.00
2018-09-09T06:52:12.956Z,6444.00
2018-09-09T06:53:13.048Z,5712.00
2018-09-09T06:54:13.143Z,5172.00
2018-09-09T06:55:13.247Z,4924.00
2018-09-09T06:56:13.342Z,5012.00
2018-09-09T06:57:13.426Z,5220.00
2018-09-09T06:58:13.548Z,5152.00
2018-09-09T06:59:13.641Z,6092.00
2018-09-09T07:00:13.741Z,4944.00
2018-09-09T07:01:13.836Z,4952.00
2018-09-09T07:02:13.983Z,4972.00
2018-09-09T07:03:14.029Z,4688.00
2018-09-09T07:04:14.119Z,4720.00
2018-09-09T07:05:14.214Z,4792.00
2018-09-09T07:06:14.314Z,4464.00
2018-09-09T07:07:14.410Z,4376.00
2018-09-09T07:08:14.505Z,4360.00
2018-09-09T07:09:14.601Z,4484.00
2018-09-09T07:10:14.696Z,4408.00
2018-09-09T07:11:14.850Z,4344.00
2018-09-09T07:12:14.885Z,4252.00
2018-09-09T07:13:14.979Z,4268.00
2018-09-09T07:14:15.077Z,4280.00
2018-09-09T07:15:15.173Z,4316.00
2018-09-09T07:16:15.265Z,4336.00
2018-09-09T07:17:15.363Z,4340.00
2018-09-09T07:18:15.468Z,4348.00
2018-09-09T07:19:15.667Z,4328.00
2018-09-09T07:20:15.658Z,4216.00
2018-09-09T07:21:15.759Z,4100.00
2018-09-09T07:22:15.846Z,4032.00
2018-09-09T07:23:15.941Z,3968.00
2018-09-09T07:24:16.041Z,3896.00
2018-09-09T07:25:16.328Z,3816.00
2018-09-09T07:26:16.249Z,3736.00
2018-09-09T07:27:16.348Z,3668.00
2018-09-09T07:28:16.442Z,3608.00
2018-09-09T07:29:16.540Z,3524.00
2018-09-09T07:30:16.637Z,3488.00
2018-09-09T07:31:16.765Z,3484.00
2018-09-09T07:32:16.837Z,3560.00
2018-09-09T07:33:16.916Z,3672.00
2018-09-09T07:34:17.068Z,3836.00
2018-09-09T07:35:17.118Z,4068.00
2018-09-09T07:36:17.218Z,4316.00
2018-09-09T07:37:17.330Z,4620.00
2018-09-09T07:38:17.414Z,4888.00
2018-09-09T07:39:17.504Z,5092.00
2018-09-09T07:40:17.601Z,5296.00
2018-09-09T07:41:17.708Z,5444.00
2018-09-09T07:42:17.803Z,5484.00
2018-09-09T07:43:17.902Z,5520.00
2018-09-09T07:44:18.007Z,5484.00
2018-09-09T07:45:18.117Z,5464.00
2018-09-09T07:46:18.251Z,5332.00
2018-09-09T07:47:18.320Z,5260.00
2018-09-09T07:48:18.415Z,5184.00
2018-09-09T07:49:18.508Z,5096.00
2018-09-09T07:50:18.597Z,5004.00
2018-09-09T07:51:18.695Z,4912.00
2018-09-09T07:52:18.780Z,4872.00
2018-09-09T07:53:18.885Z,4844.00
2018-09-09T07:54:19.034Z,4832.00
2018-09-09T07:55:19.083Z,4832.00
2018-09-09T07:56:19.174Z,4852.00
2018-09-09T07:57:19.272Z,4804.00
2018-09-09T07:58:19.371Z,4764.00
2018-09-09T07:59:19.468Z,4752.00
2018-09-09T08:00:19.580Z,4748.00
2018-09-09T08:01:19.661Z,4764.00
2018-09-09T08:02:19.757Z,4776.00
2018-09-09T08:03:19.853Z,4764.00
2018-09-09T08:04:19.955Z,4704.00
2018-09-09T08:05:20.061Z,4632.00
2018-09-09T08:06:20.155Z,4472.00
2018-09-09T08:07:20.254Z,4364.00
2018-09-09T08:08:20.348Z,4268.00
2018-09-09T08:09:20.449Z,4184.00
2018-09-09T08:10:20.542Z,4128.00
2018-09-09T08:11:20.650Z,4096.00
2018-09-09T08:12:20.770Z,4132.00
2018-09-09T08:13:20.869Z,4268.00
2018-09-09T08:14:20.966Z,4492.00
2018-09-09T08:15:21.063Z,4796.00
2018-09-09T08:16:21.161Z,5024.00
2018-09-09T08:17:21.257Z,5360.00
2018-09-09T08:18:21.388Z,5580.00
2018-09-09T08:19:21.451Z,5816.00
2018-09-09T08:20:21.548Z,5848.00
2018-09-09T08:21:21.647Z,6080.00
2018-09-09T08:22:21.746Z,6252.00
2018-09-09T08:23:21.842Z,6256.00
2018-09-09T08:24:21.945Z,6408.00
2018-09-09T08:25:22.037Z,6504.00
2018-09-09T08:26:22.133Z,6544.00
2018-09-09T08:27:22.234Z,6508.00
2018-09-09T08:28:22.328Z,6528.00
2018-09-09T08:29:22.424Z,6520.00
2018-09-09T08:30:22.520Z,6632.00
2018-09-09T08:31:22.618Z,6756.00
2018-09-09T08:32:22.708Z,6892.00
2018-09-09T08:33:22.805Z,7148.00
2018-09-09T08:34:22.903Z,7380.00
2018-09-09T08:35:23.001Z,7496.00
2018-09-09T08:36:23.099Z,7116.00
2018-09-09T08:37:23.196Z,7224.00
2018-09-09T08:38:23.324Z,7328.00
2018-09-09T08:39:23.391Z,7248.00
2018-09-09T08:40:23.491Z,7360.00
2018-09-09T08:41:23.593Z,7008.00
2018-09-09T08:42:23.686Z,6668.00
2018-09-09T08:43:23.784Z,6680.00
2018-09-09T08:44:23.908Z,6644.00
2018-09-09T08:45:24.012Z,6648.00
2018-09-09T08:46:24.102Z,6588.00
2018-09-09T08:47:24.202Z,6560.00
2018-09-09T08:48:24.297Z,6524.00
2018-09-09T08:49:24.392Z,6564.00
2018-09-09T08:50:24.490Z,6624.00
2018-09-09T08:51:24.583Z,6680.00
2018-09-09T08:52:24.685Z,6728.00
2018-09-09T08:53:24.788Z,6772.00
2018-09-09T08:54:24.881Z,6752.00
2018-09-09T08:55:24.981Z,6740.00
2018-09-09T08:56:25.078Z,6720.00
2018-09-09T08:57:25.233Z,6652.00
2018-09-09T08:58:25.264Z,6596.00
2018-09-09T08:59:25.358Z,6556.00
2018-09-09T09:00:25.457Z,6508.00
2018-09-09T09:01:25.556Z,6480.00
2018-09-09T09:02:25.653Z,6424.00
2018-09-09T09:03:25.753Z,6500.00
2018-09-09T09:04:25.848Z,6560.00
2018-09-09T09:05:25.950Z,6648.00
2018-09-09T09:06:26.052Z,6832.00
2018-09-09T09:07:26.156Z,7228.00
2018-09-09T09:08:26.248Z,7132.00
2018-09-09T09:09:26.343Z,7684.00
2018-09-09T09:10:26.442Z,7656.00
2018-09-09T09:11:26.538Z,7388.00
2018-09-09T09:12:26.636Z,7368.00
2018-09-09T09:13:26.735Z,7084.00
2018-09-09T09:14:26.833Z,7544.00
2018-09-09T09:15:26.929Z,7192.00
2018-09-09T09:16:27.029Z,7148.00
2018-09-09T09:17:27.127Z,6476.00
2018-09-09T09:18:27.242Z,6264.00
2018-09-09T09:19:27.325Z,6504.00
2018-09-09T09:20:27.465Z,6724.00
2018-09-09T09:21:27.523Z,6676.00
2018-09-09T09:22:27.619Z,6604.00
2018-09-09T09:23:27.729Z,6916.00
2018-09-09T09:24:27.817Z,6824.00
2018-09-09T09:25:27.912Z,7992.00
2018-09-09T09:26:28.009Z,6836.00
2018-09-09T09:27:28.107Z,6848.00
2018-09-09T09:28:28.205Z,6800.00
2018-09-09T09:29:28.304Z,6840.00
2018-09-09T09:30:28.410Z,6804.00
2018-09-09T09:31:28.508Z,6936.00
2018-09-09T09:32:28.610Z,6816.00
2018-09-09T09:33:28.704Z,6728.00
2018-09-09T09:34:28.802Z,6560.00
2018-09-09T09:35:28.906Z,6376.00
2018-09-09T09:36:28.997Z,6308.00
2018-09-09T09:37:29.098Z,6060.00
2018-09-09T09:38:29.203Z,5912.00
2018-09-09T09:39:29.350Z,5824.00
2018-09-09T09:40:29.397Z,5768.00
2018-09-09T09:41:29.497Z,5784.00
2018-09-09T09:42:29.597Z,5800.00
2018-09-09T09:43:29.697Z,5868.00
2018-09-09T09:44:29.794Z,6012.00
2018-09-09T09:45:29.912Z,6076.00
2018-09-09T09:46:30.011Z,6216.00
2018-09-09T09:47:30.105Z,6336.00
2018-09-09T09:48:30.207Z,6440.00
2018-09-09T09:49:30.301Z,6588.00
2018-09-09T09:50:30.396Z,6600.00
2018-09-09T09:51:30.495Z,6672.00
2018-09-09T09:52:30.594Z,6780.00
2018-09-09T09:53:30.703Z,6828.00
2018-09-09T09:54:30.792Z,6964.00
2018-09-09T09:55:30.927Z,7420.00
2018-09-09T09:56:30.991Z,7448.00
2018-09-09T09:57:31.091Z,7460.00
2018-09-09T09:58:31.187Z,7692.00
2018-09-09T09:59:31.281Z,7724.00
2018-09-09T10:00:31.385Z,8044.00
2018-09-09T10:01:31.483Z,7672.00
2018-09-09T10:02:31.603Z,7896.00
2018-09-09T10:03:31.694Z,7820.00
2018-09-09T10:04:31.784Z,7872.00
2018-09-09T10:05:31.880Z,8140.00
2018-09-09T10:06:31.982Z,8280.00
2018-09-09T10:07:32.082Z,8524.00
2018-09-09T10:08:32.187Z,8688.00
2018-09-09T10:09:32.287Z,8380.00
2018-09-09T10:10:32.380Z,8240.00
2018-09-09T10:11:32.480Z,7724.00
2018-09-09T10:12:32.581Z,7492.00
2018-09-09T10:13:32.679Z,7328.00
2018-09-09T10:14:32.776Z,7296.00
2018-09-09T10:15:32.876Z,7360.00
2018-09-09T10:16:32.976Z,7216.00
2018-09-09T10:17:33.076Z,7208.00
2018-09-09T10:18:33.181Z,7192.00
2018-09-09T10:19:33.280Z,7112.00
2018-09-09T10:20:33.374Z,7104.00
2018-09-09T10:21:33.474Z,7092.00
2018-09-09T10:22:33.572Z,7108.00
2018-09-09T10:23:33.672Z,7380.00
2018-09-09T10:24:33.774Z,7176.00
2018-09-09T10:25:33.866Z,7212.00
2018-09-09T10:26:33.990Z,7136.00
2018-09-09T10:27:34.136Z,7384.00
2018-09-09T10:28:34.189Z,7076.00
2018-09-09T10:29:34.293Z,7428.00
2018-09-09T10:30:34.389Z,8284.00
2018-09-09T10:31:34.496Z,7372.00
2018-09-09T10:32:34.589Z,6996.00
2018-09-09T10:33:34.700Z,7032.00
2018-09-09T10:34:34.811Z,7044.00
2018-09-09T10:35:34.913Z,7224.00
2018-09-09T10:36:35.039Z,6948.00
2018-09-09T10:37:35.104Z,7044.00
2018-09-09T10:38:35.212Z,7388.00
2018-09-09T10:39:35.309Z,7216.00
2018-09-09T10:40:35.415Z,7240.00
2018-09-09T10:41:35.516Z,7664.00
2018-09-09T10:42:35.611Z,8580.00
2018-09-09T10:43:35.713Z,8108.00
2018-09-09T10:44:35.812Z,8992.00
2018-09-09T10:45:35.921Z,8580.00
2018-09-09T10:46:36.090Z,8480.00
2018-09-09T10:47:36.134Z,8068.00
2018-09-09T10:48:36.233Z,7524.00
2018-09-09T10:49:36.416Z,7468.00
2018-09-09T10:50:36.402Z,7392.00
2018-09-09T10:51:36.548Z,7400.00
2018-09-09T10:52:36.600Z,7428.00
2018-09-09T10:53:36.717Z,7428.00
2018-09-09T10:54:36.817Z,7956.00
2018-09-09T10:55:36.921Z,8320.00
2018-09-09T10:56:37.039Z,9096.00
2018-09-09T10:57:37.145Z,9316.00
2018-09-09T10:58:37.279Z,9856.00
2018-09-09T10:59:37.336Z,10084.00
2018-09-09T11:00:37.437Z,10108.00
2018-09-09T11:01:37.528Z,9980.00
2018-09-09T11:02:37.639Z,9684.00
2018-09-09T11:03:37.714Z,8792.00
2018-09-09T11:04:37.839Z,9268.00
2018-09-09T11:05:37.928Z,9576.00
2018-09-09T11:06:38.030Z,8872.00
2018-09-09T11:07:38.134Z,8928.00
2018-09-09T11:08:38.232Z,8616.00
2018-09-09T11:09:38.337Z,8612.00
2018-09-09T11:10:38.437Z,8684.00
2018-09-09T11:11:38.558Z,8128.00
2018-09-09T11:12:38.724Z,8104.00
2018-09-09T11:13:38.748Z,7652.00
2018-09-09T11:14:38.852Z,8032.00
2018-09-09T11:15:38.941Z,8052.00
2018-09-09T11:16:39.040Z,8228.00
2018-09-09T11:17:39.139Z,8452.00
2018-09-09T11:18:39.768Z,8280.00
2018-09-09T11:19:39.367Z,8324.00
2018-09-09T11:20:39.465Z,8360.00
2018-09-09T11:21:39.567Z,8388.00
2018-09-09T11:22:39.668Z,8336.00
2018-09-09T11:23:39.755Z,8340.00
2018-09-09T11:24:39.954Z,8260.00
2018-09-09T11:25:39.956Z,8244.00
2018-09-09T11:26:40.063Z,8044.00
2018-09-09T11:27:40.167Z,7952.00
2018-09-09T11:28:40.269Z,7912.00
2018-09-09T11:29:40.358Z,7652.00
2018-09-09T11:30:40.468Z,7516.00
2018-09-09T11:31:40.568Z,7484.00
2018-09-09T11:32:40.671Z,7520.00
2018-09-09T11:33:40.776Z,7352.00
2018-09-09T11:34:40.874Z,7192.00
2018-09-09T11:35:40.969Z,7240.00
2018-09-09T11:36:41.073Z,7504.00
2018-09-09T11:37:41.175Z,7852.00
2018-09-09T11:38:41.273Z,7256.00
2018-09-09T11:39:41.379Z,7176.00
2018-09-09T11:40:41.507Z,7436.00
2018-09-09T11:41:41.583Z,7324.00
2018-09-09T11:42:41.682Z,7528.00
2018-09-09T11:43:41.783Z,7708.00
2018-09-09T11:44:41.892Z,7896.00
2018-09-09T11:45:42.014Z,8632.00
2018-09-09T11:46:42.092Z,8744.00
2018-09-09T11:47:42.195Z,8836.00
2018-09-09T11:48:42.295Z,9424.00
2018-09-09T11:49:42.396Z,9012.00
2018-09-09T11:50:42.499Z,9276.00
2018-09-09T11:51:42.610Z,9848.00
2018-09-09T11:52:42.696Z,9924.00
2018-09-09T11:53:42.795Z,8824.00
2018-09-09T11:54:42.903Z,8784.00
2018-09-09T11:55:43.000Z,8924.00
2018-09-09T11:56:43.111Z,9300.00
2018-09-09T11:57:43.211Z,8724.00
2018-09-09T11:58:43.313Z,8896.00
2018-09-09T11:59:43.417Z,8352.00
2018-09-09T12:00:43.507Z,8328.00
2018-09-09T12:01:43.613Z,7212.00
2018-09-09T12:02:43.710Z,6676.00
2018-09-09T12:03:43.818Z,6224.00
2018-09-09T12:04:43.922Z,6768.00
2018-09-09T12:05:44.024Z,7088.00
2018-09-09T12:06:44.134Z,6456.00
2018-09-09T12:07:44.234Z,6680.00
2018-09-09T12:08:44.326Z,7872.00
2018-09-09T12:09:44.432Z,7696.00
2018-09-09T12:10:44.531Z,7580.00
2018-09-09T12:11:44.633Z,7112.00
2018-09-09T12:12:44.737Z,7332.00
2018-09-09T12:13:44.835Z,7412.00
2018-09-09T12:14:44.936Z,7660.00
2018-09-09T12:15:45.041Z,7716.00
2018-09-09T12:16:45.135Z,5820.00
2018-09-09T12:17:45.234Z,5584.00
2018-09-09T12:18:45.333Z,5516.00
2018-09-09T12:19:45.461Z,6132.00
2018-09-09T12:20:45.567Z,5444.00
2018-09-09T12:21:45.669Z,5568.00
2018-09-09T12:22:45.776Z,6236.00
2018-09-09T12:23:45.878Z,5628.00
2018-09-09T12:24:45.987Z,6220.00
2018-09-09T12:25:46.090Z,7324.00
2018-09-09T12:26:46.193Z,6776.00
2018-09-09T12:27:46.293Z,6892.00
2018-09-09T12:28:46.414Z,5980.00
2018-09-09T12:29:46.521Z,6168.00
2018-09-09T12:30:46.646Z,6096.00
2018-09-09T12:31:46.748Z,5836.00
2018-09-09T12:32:46.851Z,6076.00
2018-09-09T12:33:46.953Z,6232.00